Time;durP1;ratioP1;P1;durP2;ratioP2;P2;SDS_P1;SDS_P2;PMS_P1;PMS_P2;Temp;Humidity;BMP_temperature;BMP_pressure;BME280_temperature;BME280_humidity;BME280_pressure;Samples;Min_cycle;Max_cycle;Signal;HPM_P1;HPM_P2
2021/08/19 00:00:29;;;;;;;;;4.00;1.50;;;;;;;;5054392;27;45668;-82
2021/08/19 00:02:55;;;;;;;;;3.25;3.00;;;;;;;;5048410;28;45836;-85
2021/08/19 00:05:20;;;;;;;;;3.00;3.00;;;;;;;;5046343;28;45532;-85
2021/08/19 00:07:46;;;;;;;;;6.00;3.00;;;;;;;;5056934;28;45660;-86
2021/08/19 00:10:12;;;;;;;;;3.00;3.00;;;;;;;;5050309;27;45642;-85
2021/08/19 00:12:37;;;;;;;;;2.25;2.00;;;;;;;;5055818;27;50932;-87
2021/08/19 00:15:02;;;;;;;;;3.75;3.75;;;;;;;;5063202;28;45479;-84
2021/08/19 00:17:28;;;;;;;;;2.75;2.75;;;;;;;;5050715;27;46208;-84
2021/08/19 00:19:53;;;;;;;;;3.00;2.25;;;;;;;;5061635;28;45657;-85
2021/08/19 00:22:18;;;;;;;;;4.25;2.00;;;;;;;;5046378;27;45712;-85
2021/08/19 00:24:43;;;;;;;;;2.75;2.75;;;;;;;;5058763;27;46930;-85
2021/08/19 00:27:09;;;;;;;;;4.00;2.00;;;;;;;;5049909;27;47565;-84
2021/08/19 00:29:34;;;;;;;;;3.00;3.00;;;;;;;;5051188;27;56072;-85
2021/08/19 00:32:02;;;;;;;;;1.50;1.25;;;;;;;;5055192;27;45567;-85
2021/08/19 00:34:27;;;;;;;;;4.00;3.00;;;;;;;;5064742;27;47915;-86
2021/08/19 00:36:54;;;;;;;;;2.00;1.50;;;;;;;;5054023;28;46018;-85
2021/08/19 00:39:19;;;;;;;;;2.50;2.00;;;;;;;;5048009;27;45550;-84
2021/08/19 00:41:44;;;;;;;;;2.00;2.00;;;;;;;;5058626;27;45616;-86
2021/08/19 00:44:10;;;;;;;;;4.00;3.00;;;;;;;;5043831;27;48005;-84
2021/08/19 00:46:36;;;;;;;;;3.00;2.00;;;;;;;;5058351;27;45708;-85
2021/08/19 00:49:04;;;;;;;;;4.00;2.00;;;;;;;;5058988;27;45651;-85
2021/08/19 00:51:46;;;;;;;;;2.50;2.50;;;;;;;;5061279;28;45780;-85
2021/08/19 00:54:13;;;;;;;;;4.00;1.50;;;;;;;;5065597;28;45633;-86
2021/08/19 00:56:39;;;;;;;;;2.00;2.00;;;;;;;;5059721;28;47259;-85
2021/08/19 00:59:09;;;;;;;;;3.25;3.00;;;;;;;;5053861;27;45611;-87
2021/08/19 01:01:35;;;;;;;;;3.00;2.00;;;;;;;;5048052;27;46415;-85
2021/08/19 01:04:01;;;;;;;;;2.00;2.00;;;;;;;;5052079;27;45535;-86
2021/08/19 01:06:26;;;;;;;;;2.00;2.00;;;;;;;;5053187;28;47307;-85
2021/08/19 01:08:52;;;;;;;;;2.75;2.00;;;;;;;;5053712;27;45613;-85
2021/08/19 01:11:18;;;;;;;;;4.00;3.00;;;;;;;;5048502;27;45460;-85
2021/08/19 01:13:43;;;;;;;;;2.25;2.25;;;;;;;;5064969;27;45576;-85
2021/08/19 01:16:08;;;;;;;;;2.00;2.00;;;;;;;;5054812;27;47466;-86
2021/08/19 01:18:40;;;;;;;;;2.25;2.00;;;;;;;;5053903;28;45563;-86
2021/08/19 01:21:06;;;;;;;;;3.50;3.00;;;;;;;;5052651;27;45412;-85
2021/08/19 01:23:31;;;;;;;;;1.50;1.00;;;;;;;;5046426;28;45506;-85
2021/08/19 01:25:57;;;;;;;;;2.00;2.00;;;;;;;;5053583;27;47394;-86
2021/08/19 01:28:23;;;;;;;;;2.50;2.50;;;;;;;;5052414;27;45324;-86
2021/08/19 01:30:48;;;;;;;;;3.75;3.00;;;;;;;;5058816;27;51859;-85
2021/08/19 01:33:13;;;;;;;;;2.00;2.00;;;;;;;;5065321;28;45621;-84
2021/08/19 01:35:38;;;;;;;;;2.00;2.00;;;;;;;;5049174;27;47334;-85
2021/08/19 01:38:04;;;;;;;;;2.50;2.25;;;;;;;;5055643;27;45534;-87
2021/08/19 01:40:29;;;;;;;;;2.00;2.00;;;;;;;;5064521;27;45625;-87
2021/08/19 01:42:54;;;;;;;;;4.00;4.00;;;;;;;;5057828;27;45531;-85
2021/08/19 01:45:21;;;;;;;;;2.50;2.00;;;;;;;;5052135;28;45555;-85
2021/08/19 01:47:47;;;;;;;;;3.00;3.00;;;;;;;;5064330;27;45653;-85
2021/08/19 01:50:12;;;;;;;;;3.50;2.50;;;;;;;;5052244;27;46328;-85
2021/08/19 01:52:37;;;;;;;;;2.25;1.00;;;;;;;;5063242;28;45484;-85
2021/08/19 01:55:03;;;;;;;;;1.50;1.50;;;;;;;;5059809;27;46275;-85
2021/08/19 01:57:29;;;;;;;;;3.25;1.50;;;;;;;;5058497;27;45851;-84
2021/08/19 01:59:54;;;;;;;;;3.00;2.00;;;;;;;;5062132;27;45535;-84
2021/08/19 02:02:20;;;;;;;;;2.50;2.00;;;;;;;;5062744;28;45908;-85
2021/08/19 02:04:45;;;;;;;;;1.75;1.00;;;;;;;;5067099;27;46835;-85
2021/08/19 02:07:10;;;;;;;;;1.00;1.00;;;;;;;;5062747;27;45560;-85
2021/08/19 02:09:35;;;;;;;;;2.00;1.67;;;;;;;;5059049;27;45410;-87
2021/08/19 02:12:01;;;;;;;;;3.00;2.00;;;;;;;;5050126;27;45573;-85
2021/08/19 02:14:26;;;;;;;;;3.25;3.25;;;;;;;;5055958;27;45792;-84
2021/08/19 02:16:51;;;;;;;;;3.25;2.00;;;;;;;;5055539;28;45466;-86
2021/08/19 02:19:17;;;;;;;;;2.25;2.00;;;;;;;;5050235;27;45654;-85
2021/08/19 02:21:42;;;;;;;;;3.00;3.00;;;;;;;;5061821;27;45570;-86
2021/08/19 02:24:07;;;;;;;;;3.00;2.00;;;;;;;;5051435;28;48618;-84
2021/08/19 02:26:33;;;;;;;;;5.25;3.00;;;;;;;;5048148;27;53910;-85
2021/08/19 02:28:58;;;;;;;;;2.00;2.00;;;;;;;;5056514;27;45436;-85
2021/08/19 02:31:23;;;;;;;;;6.00;2.50;;;;;;;;5061396;27;45783;-85
2021/08/19 02:33:49;;;;;;;;;4.75;3.00;;;;;;;;5060702;27;47046;-85
2021/08/19 02:36:14;;;;;;;;;3.00;1.75;;;;;;;;5058599;28;45566;-86
2021/08/19 02:38:39;;;;;;;;;2.00;2.00;;;;;;;;5053900;27;45523;-85
2021/08/19 02:41:05;;;;;;;;;2.75;2.00;;;;;;;;5056620;27;45592;-86
2021/08/19 02:43:30;;;;;;;;;1.50;1.50;;;;;;;;5054227;27;47334;-85
2021/08/19 02:45:55;;;;;;;;;1.25;1.25;;;;;;;;5062291;27;45586;-84
2021/08/19 02:48:21;;;;;;;;;2.75;1.75;;;;;;;;5051896;27;48372;-85
2021/08/19 02:50:46;;;;;;;;;3.00;2.75;;;;;;;;5060662;27;45619;-85
2021/08/19 02:53:12;;;;;;;;;2.00;2.00;;;;;;;;5061317;27;48172;-84
2021/08/19 02:55:37;;;;;;;;;3.75;2.00;;;;;;;;5049689;27;45683;-85
2021/08/19 02:58:02;;;;;;;;;1.50;1.50;;;;;;;;5061420;27;45598;-85
2021/08/19 03:00:27;;;;;;;;;3.00;2.00;;;;;;;;5066539;28;45511;-85
2021/08/19 03:02:53;;;;;;;;;2.00;2.00;;;;;;;;5063652;27;47417;-82
2021/08/19 03:05:18;;;;;;;;;2.00;2.00;;;;;;;;5053378;27;45251;-82
2021/08/19 03:07:43;;;;;;;;;2.00;2.00;;;;;;;;5052571;27;45619;-82
2021/08/19 03:10:09;;;;;;;;;4.00;1.00;;;;;;;;5051017;27;47565;-82
2021/08/19 03:12:34;;;;;;;;;2.00;2.00;;;;;;;;5048969;27;46255;-82
2021/08/19 03:14:59;;;;;;;;;2.25;2.25;;;;;;;;5055885;27;46470;-82
2021/08/19 03:17:25;;;;;;;;;2.25;1.00;;;;;;;;5053158;27;46503;-82
2021/08/19 03:19:50;;;;;;;;;2.00;2.00;;;;;;;;5056661;27;45544;-82
2021/08/19 03:22:15;;;;;;;;;2.25;2.25;;;;;;;;5047955;27;46115;-82
2021/08/19 03:24:41;;;;;;;;;2.00;2.00;;;;;;;;5049765;28;45476;-82
2021/08/19 03:27:06;;;;;;;;;3.25;2.00;;;;;;;;5065044;27;45591;-82
2021/08/19 03:29:32;;;;;;;;;1.25;1.25;;;;;;;;5060318;27;45433;-82
2021/08/19 03:31:57;;;;;;;;;2.00;2.00;;;;;;;;5064074;28;47500;-82
2021/08/19 03:34:23;;;;;;;;;3.00;1.75;;;;;;;;5048545;28;45538;-82
2021/08/19 03:36:48;;;;;;;;;1.75;1.75;;;;;;;;5052311;27;46077;-82
2021/08/19 03:39:14;;;;;;;;;2.00;1.25;;;;;;;;5057207;28;45449;-82
2021/08/19 03:41:39;;;;;;;;;2.00;2.00;;;;;;;;5047049;27;45711;-82
2021/08/19 03:44:04;;;;;;;;;3.00;2.00;;;;;;;;5052427;27;45800;-82
2021/08/19 03:46:32;;;;;;;;;2.00;2.00;;;;;;;;5064500;27;50966;-82
2021/08/19 03:48:59;;;;;;;;;1.75;1.75;;;;;;;;5060804;28;45843;-82
2021/08/19 03:51:24;;;;;;;;;2.50;2.50;;;;;;;;5055250;28;45746;-82
2021/08/19 03:53:53;;;;;;;;;2.75;2.75;;;;;;;;5059204;27;46297;-82
2021/08/19 03:56:18;;;;;;;;;2.00;2.00;;;;;;;;5054910;27;45428;-82
2021/08/19 03:58:43;;;;;;;;;4.75;2.00;;;;;;;;5057250;27;45489;-82
2021/08/19 04:01:09;;;;;;;;;4.75;2.75;;;;;;;;5060155;27;49936;-82
2021/08/19 04:09:42;;;;;;;;;4.00;2.25;;;;;;;;5041879;22;45679;-85
2021/08/19 04:12:07;;;;;;;;;2.33;2.00;;;;;;;;5028101;28;47069;-85
2021/08/19 04:14:33;;;;;;;;;1.75;1.75;;;;;;;;5015848;28;45873;-84
2021/08/19 04:16:58;;;;;;;;;3.25;3.25;;;;;;;;5043447;28;45526;-85
2021/08/19 04:19:24;;;;;;;;;3.00;3.00;;;;;;;;5027648;28;45619;-85
2021/08/19 04:21:49;;;;;;;;;3.50;2.25;;;;;;;;5031886;28;46832;-85
2021/08/19 04:24:14;;;;;;;;;3.75;3.00;;;;;;;;5029981;28;46715;-84
2021/08/19 04:26:40;;;;;;;;;3.00;3.00;;;;;;;;5037229;28;45465;-85
2021/08/19 04:29:05;;;;;;;;;3.00;3.00;;;;;;;;5015144;28;45767;-84
2021/08/19 04:31:30;;;;;;;;;4.00;3.25;;;;;;;;5017160;28;45927;-84
2021/08/19 04:33:56;;;;;;;;;3.25;2.00;;;;;;;;5036024;28;45688;-88
2021/08/19 04:36:22;;;;;;;;;2.25;2.25;;;;;;;;5018687;28;45662;-85
2021/08/19 04:38:47;;;;;;;;;2.00;2.00;;;;;;;;5033425;28;45572;-85
2021/08/19 04:41:12;;;;;;;;;3.25;3.00;;;;;;;;5010751;28;50509;-85
2021/08/19 04:43:37;;;;;;;;;4.25;3.00;;;;;;;;5038590;28;45568;-84
2021/08/19 04:46:03;;;;;;;;;3.25;2.00;;;;;;;;5023222;28;45703;-85
2021/08/19 04:48:28;;;;;;;;;1.25;1.25;;;;;;;;5015636;28;45542;-84
2021/08/19 04:50:53;;;;;;;;;2.00;2.00;;;;;;;;5035051;28;45580;-85
2021/08/19 04:53:19;;;;;;;;;4.00;3.00;;;;;;;;5022981;28;45915;-84
2021/08/19 04:55:44;;;;;;;;;5.75;3.00;;;;;;;;5029078;28;45459;-86
2021/08/19 04:58:10;;;;;;;;;6.00;3.00;;;;;;;;5034374;28;47829;-85
2021/08/19 05:00:35;;;;;;;;;3.75;2.75;;;;;;;;5024579;28;46964;-86
2021/08/19 05:03:00;;;;;;;;;3.50;3.00;;;;;;;;5027963;28;45602;-86
2021/08/19 05:05:26;;;;;;;;;3.25;2.25;;;;;;;;5022005;28;45672;-85
2021/08/19 05:07:51;;;;;;;;;2.50;2.50;;;;;;;;5033303;28;45501;-86
2021/08/19 05:10:16;;;;;;;;;3.25;3.00;;;;;;;;5034963;28;46374;-85
2021/08/19 05:12:42;;;;;;;;;2.00;2.00;;;;;;;;5043057;28;45612;-86
2021/08/19 05:15:08;;;;;;;;;4.50;2.25;;;;;;;;5030621;28;45576;-84
2021/08/19 05:17:33;;;;;;;;;3.50;3.50;;;;;;;;5024975;28;45702;-85
2021/08/19 05:19:59;;;;;;;;;2.75;2.75;;;;;;;;5031256;28;46162;-88
2021/08/19 05:22:24;;;;;;;;;4.00;4.00;;;;;;;;5040619;28;45479;-85
2021/08/19 05:24:49;;;;;;;;;3.75;2.25;;;;;;;;5025172;28;45568;-84
2021/08/19 05:27:15;;;;;;;;;3.00;3.00;;;;;;;;5040033;28;45455;-84
2021/08/19 05:29:40;;;;;;;;;4.00;4.00;;;;;;;;5033209;28;46183;-85
2021/08/19 05:32:05;;;;;;;;;5.00;3.00;;;;;;;;5016726;28;46304;-86
2021/08/19 05:34:31;;;;;;;;;3.00;3.00;;;;;;;;5027187;28;45547;-84
2021/08/19 05:36:56;;;;;;;;;5.00;3.75;;;;;;;;5028250;28;45414;-84
2021/08/19 05:39:21;;;;;;;;;2.25;2.25;;;;;;;;5017952;28;48049;-84
2021/08/19 05:41:46;;;;;;;;;5.50;3.50;;;;;;;;5027819;28;45716;-84
2021/08/19 05:44:12;;;;;;;;;5.25;3.25;;;;;;;;5036409;28;45497;-84
2021/08/19 05:46:40;;;;;;;;;6.50;4.00;;;;;;;;5028722;28;45619;-85
2021/08/19 05:49:06;;;;;;;;;4.75;3.50;;;;;;;;5032121;28;48523;-85
2021/08/19 05:51:31;;;;;;;;;4.50;4.00;;;;;;;;5039805;28;45533;-84
2021/08/19 05:53:56;;;;;;;;;8.25;5.00;;;;;;;;5025427;28;47606;-85
2021/08/19 05:56:22;;;;;;;;;7.50;5.00;;;;;;;;5035677;28;45570;-84
2021/08/19 05:58:47;;;;;;;;;6.25;6.25;;;;;;;;5029870;28;47652;-86
2021/08/19 06:01:12;;;;;;;;;5.75;5.75;;;;;;;;5031238;28;45715;-85
2021/08/19 06:03:37;;;;;;;;;8.75;6.00;;;;;;;;5030439;28;45564;-82
2021/08/19 06:06:03;;;;;;;;;7.00;6.00;;;;;;;;5037720;28;45385;-82
2021/08/19 06:08:28;;;;;;;;;5.50;5.50;;;;;;;;5030280;28;46191;-82
2021/08/19 06:10:53;;;;;;;;;4.50;3.75;;;;;;;;5036482;28;45700;-83
2021/08/19 06:13:19;;;;;;;;;5.00;3.50;;;;;;;;5025182;28;45513;-82
2021/08/19 06:15:44;;;;;;;;;5.50;5.50;;;;;;;;5029246;28;45446;-81
2021/08/19 06:18:09;;;;;;;;;6.00;6.00;;;;;;;;5041357;28;45588;-82
2021/08/19 06:20:35;;;;;;;;;8.00;6.00;;;;;;;;5036752;28;45657;-82
2021/08/19 06:23:00;;;;;;;;;5.00;4.00;;;;;;;;5027653;28;45608;-82
2021/08/19 06:25:26;;;;;;;;;4.50;4.50;;;;;;;;5023025;28;45862;-82
2021/08/19 06:27:53;;;;;;;;;4.75;4.75;;;;;;;;5016556;28;45660;-83
2021/08/19 06:30:18;;;;;;;;;4.25;4.25;;;;;;;;5016488;28;50687;-82
2021/08/19 06:32:44;;;;;;;;;9.00;5.25;;;;;;;;5032317;28;45564;-82
2021/08/19 06:35:09;;;;;;;;;6.25;5.00;;;;;;;;5040578;28;45501;-82
2021/08/19 06:37:35;;;;;;;;;4.25;4.25;;;;;;;;5036727;28;46421;-82
2021/08/19 06:40:01;;;;;;;;;5.75;4.50;;;;;;;;5028136;28;45811;-82
2021/08/19 06:42:26;;;;;;;;;6.50;5.75;;;;;;;;5032828;28;45600;-82
2021/08/19 06:44:51;;;;;;;;;5.50;4.00;;;;;;;;5028863;28;45617;-82
2021/08/19 06:47:17;;;;;;;;;6.25;5.25;;;;;;;;5024871;28;47510;-82
2021/08/19 06:49:43;;;;;;;;;5.50;5.00;;;;;;;;5032663;28;45466;-82
2021/08/19 06:52:09;;;;;;;;;4.00;4.00;;;;;;;;5022268;28;45516;-82
2021/08/19 06:54:34;;;;;;;;;7.00;5.25;;;;;;;;5031111;28;45566;-82
2021/08/19 06:57:01;;;;;;;;;6.00;6.00;;;;;;;;5035256;28;46623;-82
2021/08/19 06:59:26;;;;;;;;;5.50;5.00;;;;;;;;5023018;28;46695;-82
2021/08/19 07:01:52;;;;;;;;;5.00;5.00;;;;;;;;5033375;28;50294;-82
2021/08/19 07:04:17;;;;;;;;;9.25;4.25;;;;;;;;5028897;28;45674;-84
2021/08/19 07:06:42;;;;;;;;;4.50;3.50;;;;;;;;5023884;28;48108;-84
2021/08/19 07:09:08;;;;;;;;;5.25;4.00;;;;;;;;5030754;28;45533;-86
2021/08/19 07:11:33;;;;;;;;;5.25;5.25;;;;;;;;5034988;28;52203;-85
2021/08/19 07:13:58;;;;;;;;;7.50;6.00;;;;;;;;5017473;28;45568;-83
2021/08/19 07:16:23;;;;;;;;;5.00;4.25;;;;;;;;5024322;28;47263;-85
2021/08/19 07:18:50;;;;;;;;;7.00;5.50;;;;;;;;5027331;28;46133;-85
2021/08/19 07:21:15;;;;;;;;;6.75;5.25;;;;;;;;5029044;28;45522;-85
2021/08/19 07:23:40;;;;;;;;;7.00;6.00;;;;;;;;5023090;28;45796;-84
2021/08/19 07:26:06;;;;;;;;;4.50;3.50;;;;;;;;5030185;28;48713;-84
2021/08/19 07:28:31;;;;;;;;;5.00;5.00;;;;;;;;5023273;28;45848;-84
2021/08/19 07:30:56;;;;;;;;;6.00;6.00;;;;;;;;5023015;28;45647;-85
2021/08/19 07:33:21;;;;;;;;;4.00;4.00;;;;;;;;5028692;28;45547;-85
2021/08/19 07:35:49;;;;;;;;;6.50;5.00;;;;;;;;5031022;28;45785;-85
2021/08/19 07:38:17;;;;;;;;;7.25;5.00;;;;;;;;5030047;28;45628;-85
2021/08/19 07:40:42;;;;;;;;;11.00;6.50;;;;;;;;5032380;28;45609;-84
2021/08/19 07:43:08;;;;;;;;;6.25;4.75;;;;;;;;5025072;28;45579;-86
2021/08/19 07:45:34;;;;;;;;;5.75;5.25;;;;;;;;5026938;28;47695;-84
2021/08/19 07:48:06;;;;;;;;;8.00;5.25;;;;;;;;5029011;28;45494;-86
2021/08/19 07:50:31;;;;;;;;;7.00;7.00;;;;;;;;5027545;28;45628;-85
2021/08/19 07:52:56;;;;;;;;;6.00;6.00;;;;;;;;5033925;28;45485;-85
2021/08/19 07:55:21;;;;;;;;;6.67;5.67;;;;;;;;5011088;28;53858;-84
2021/08/19 07:57:48;;;;;;;;;3.50;3.50;;;;;;;;5016894;28;46010;-84
2021/08/19 08:00:17;;;;;;;;;6.00;4.75;;;;;;;;5027475;28;45542;-85
2021/08/19 08:02:43;;;;;;;;;8.25;6.25;;;;;;;;5027348;28;46214;-86
2021/08/19 08:05:08;;;;;;;;;4.75;4.00;;;;;;;;5028808;28;45469;-84
2021/08/19 08:07:33;;;;;;;;;7.25;5.00;;;;;;;;5023801;28;45993;-85
2021/08/19 08:09:59;;;;;;;;;8.25;6.50;;;;;;;;5052939;28;45512;-86
2021/08/19 08:12:24;;;;;;;;;7.00;6.25;;;;;;;;5053603;28;45875;-85
2021/08/19 08:14:51;;;;;;;;;8.00;6.25;;;;;;;;5058604;28;45823;-85
2021/08/19 08:17:19;;;;;;;;;6.25;4.50;;;;;;;;5047833;28;45925;-84
2021/08/19 08:19:44;;;;;;;;;8.00;5.75;;;;;;;;5050377;28;45481;-85
2021/08/19 08:22:09;;;;;;;;;7.00;6.00;;;;;;;;5050269;28;45434;-84
2021/08/19 08:24:34;;;;;;;;;6.25;4.50;;;;;;;;5055462;27;46444;-85
2021/08/19 08:27:00;;;;;;;;;8.25;6.00;;;;;;;;5047522;28;45643;-84
2021/08/19 08:29:25;;;;;;;;;10.00;8.00;;;;;;;;5055057;27;45931;-84
2021/08/19 08:31:50;;;;;;;;;6.00;6.00;;;;;;;;5062684;28;45921;-87
2021/08/19 08:34:16;;;;;;;;;11.00;6.50;;;;;;;;5059396;28;47671;-85
2021/08/19 08:36:43;;;;;;;;;8.00;6.00;;;;;;;;5058728;28;45584;-87
2021/08/19 08:39:10;;;;;;;;;6.75;5.25;;;;;;;;5063156;28;45599;-84
2021/08/19 08:41:37;;;;;;;;;7.50;5.00;;;;;;;;5061494;27;45449;-84
2021/08/19 08:44:03;;;;;;;;;8.75;6.50;;;;;;;;5055188;27;45593;-86
2021/08/19 08:46:28;;;;;;;;;10.00;7.00;;;;;;;;5059424;28;45557;-84
2021/08/19 08:48:55;;;;;;;;;8.25;6.00;;;;;;;;5053479;28;46057;-85
2021/08/19 08:51:20;;;;;;;;;8.00;7.00;;;;;;;;5065022;28;45585;-85
2021/08/19 08:53:46;;;;;;;;;7.75;7.50;;;;;;;;5048353;27;48587;-85
2021/08/19 08:56:11;;;;;;;;;11.00;6.75;;;;;;;;5046984;28;45699;-86
2021/08/19 08:58:36;;;;;;;;;9.00;6.50;;;;;;;;5057220;27;46165;-84
2021/08/19 09:01:03;;;;;;;;;5.75;5.75;;;;;;;;5046067;28;45614;-85
2021/08/19 09:03:29;;;;;;;;;5.25;5.25;;;;;;;;5053425;28;48456;-84
2021/08/19 09:05:54;;;;;;;;;9.25;6.25;;;;;;;;5052265;28;45534;-84
2021/08/19 09:08:21;;;;;;;;;6.00;6.00;;;;;;;;5055895;28;45669;-85
2021/08/19 09:10:47;;;;;;;;;8.25;6.25;;;;;;;;5011660;28;45568;-84
2021/08/19 09:13:15;;;;;;;;;5.50;5.50;;;;;;;;5035230;28;45879;-84
2021/08/19 09:15:40;;;;;;;;;8.00;6.00;;;;;;;;5038044;28;45722;-84
2021/08/19 09:18:06;;;;;;;;;6.25;5.50;;;;;;;;5030678;28;45838;-84
2021/08/19 09:20:39;;;;;;;;;6.50;5.00;;;;;;;;5022524;28;45725;-84
2021/08/19 09:23:07;;;;;;;;;6.50;6.50;;;;;;;;5025991;28;47315;-84
2021/08/19 09:25:32;;;;;;;;;5.25;4.50;;;;;;;;5019827;28;45660;-84
2021/08/19 09:28:26;;;;;;;;;8.50;5.00;;;;;;;;5022501;28;46591;-85
2021/08/19 09:30:52;;;;;;;;;5.25;4.25;;;;;;;;4996487;28;45765;-85
2021/08/19 09:33:27;;;;;;;;;9.33;6.00;;;;;;;;5037462;28;46181;-84
2021/08/19 09:35:53;;;;;;;;;6.75;6.50;;;;;;;;5038135;28;45853;-86
2021/08/19 09:38:22;;;;;;;;;6.00;4.50;;;;;;;;5035468;28;45529;-84
2021/08/19 09:41:07;;;;;;;;;4.25;4.25;;;;;;;;5032007;28;45586;-86
2021/08/19 09:43:40;;;;;;;;;5.50;4.75;;;;;;;;5019971;28;46758;-84
2021/08/19 09:46:06;;;;;;;;;4.00;4.00;;;;;;;;5009792;28;46315;-86
2021/08/19 09:48:31;;;;;;;;;5.50;5.00;;;;;;;;5030064;28;45406;-84
2021/08/19 09:51:16;;;;;;;;;5.00;5.00;;;;;;;;5023163;28;45816;-85
2021/08/19 09:53:48;;;;;;;;;5.00;5.00;;;;;;;;5014818;28;47280;-85
2021/08/19 09:56:24;;;;;;;;;6.50;5.50;;;;;;;;5012165;28;45985;-88
2021/08/19 09:58:49;;;;;;;;;4.25;3.00;;;;;;;;5032418;28;45511;-84
2021/08/19 10:01:15;;;;;;;;;5.75;4.50;;;;;;;;5038258;28;45433;-85
2021/08/19 10:03:40;;;;;;;;;5.25;4.50;;;;;;;;5042135;28;50568;-82
2021/08/19 10:06:06;;;;;;;;;6.75;5.75;;;;;;;;5032367;28;45562;-82
2021/08/19 10:08:32;;;;;;;;;3.50;3.50;;;;;;;;5036321;28;45580;-82
2021/08/19 10:10:59;;;;;;;;;5.00;4.50;;;;;;;;5029196;28;45540;-82
2021/08/19 10:13:25;;;;;;;;;5.75;4.00;;;;;;;;5030441;28;46774;-82
2021/08/19 10:15:51;;;;;;;;;4.75;4.00;;;;;;;;5035704;28;45510;-82
2021/08/19 10:18:19;;;;;;;;;5.25;4.00;;;;;;;;5031675;28;45451;-82
2021/08/19 10:20:47;;;;;;;;;5.50;3.75;;;;;;;;5023346;28;45748;-82
2021/08/19 10:23:13;;;;;;;;;4.25;3.50;;;;;;;;5013152;28;48381;-82
2021/08/19 10:25:39;;;;;;;;;6.00;5.00;;;;;;;;5035728;28;45741;-82
2021/08/19 10:28:20;;;;;;;;;4.75;3.50;;;;;;;;5029768;28;45560;-82
2021/08/19 10:30:53;;;;;;;;;4.00;4.00;;;;;;;;5028607;28;45427;-82
2021/08/19 10:33:37;;;;;;;;;5.50;4.50;;;;;;;;5043050;28;46600;-82
2021/08/19 10:36:11;;;;;;;;;7.00;3.00;;;;;;;;5038073;28;45608;-82
2021/08/19 10:38:39;;;;;;;;;4.00;4.00;;;;;;;;5024390;28;47843;-82
2021/08/19 10:41:23;;;;;;;;;2.75;2.75;;;;;;;;5017760;28;46260;-82
2021/08/19 10:44:02;;;;;;;;;2.75;2.75;;;;;;;;5017066;28;48670;-82
2021/08/19 10:46:36;;;;;;;;;5.25;3.50;;;;;;;;5030714;28;45490;-82
2021/08/19 10:49:01;;;;;;;;;4.50;4.50;;;;;;;;5024397;28;45676;-81
2021/08/19 10:51:27;;;;;;;;;3.50;3.50;;;;;;;;5036731;28;45635;-82
2021/08/19 10:53:52;;;;;;;;;4.75;4.75;;;;;;;;5031200;28;45538;-82
2021/08/19 10:56:38;;;;;;;;;3.50;3.50;;;;;;;;5023095;28;45638;-81
2021/08/19 10:59:22;;;;;;;;;6.75;4.25;;;;;;;;5034634;28;45592;-82
2021/08/19 11:01:50;;;;;;;;;4.25;4.00;;;;;;;;5013865;28;47908;-82
2021/08/19 11:04:35;;;;;;;;;6.25;5.00;;;;;;;;5014837;28;47332;-85
2021/08/19 11:07:02;;;;;;;;;5.75;2.75;;;;;;;;5031441;28;45310;-87
2021/08/19 11:09:28;;;;;;;;;7.50;5.25;;;;;;;;5037254;28;45726;-85
2021/08/19 11:11:53;;;;;;;;;5.00;4.00;;;;;;;;5060155;28;45580;-85
2021/08/19 11:14:20;;;;;;;;;4.00;3.50;;;;;;;;5047441;27;46086;-85
2021/08/19 11:16:56;;;;;;;;;3.25;2.75;;;;;;;;5055360;27;45631;-84
2021/08/19 11:19:22;;;;;;;;;3.00;3.00;;;;;;;;5049859;27;45834;-86
2021/08/19 11:21:50;;;;;;;;;3.75;3.00;;;;;;;;5059891;27;45471;-86
2021/08/19 11:24:16;;;;;;;;;4.50;3.75;;;;;;;;5059044;27;46331;-84
2021/08/19 11:26:54;;;;;;;;;3.75;3.75;;;;;;;;5047061;28;48330;-85
2021/08/19 11:29:49;;;;;;;;;5.00;3.75;;;;;;;;5052707;28;49385;-85
2021/08/19 11:32:16;;;;;;;;;3.75;2.50;;;;;;;;4997701;28;45800;-86
2021/08/19 11:34:46;;;;;;;;;4.00;2.75;;;;;;;;5005992;28;46627;-84
2021/08/19 11:37:23;;;;;;;;;3.50;3.50;;;;;;;;5002838;28;53732;-84
2021/08/19 11:39:52;;;;;;;;;5.00;5.00;;;;;;;;5001881;28;45510;-85
2021/08/19 11:42:26;;;;;;;;;5.50;3.50;;;;;;;;5005290;28;45682;-85
2021/08/19 11:44:51;;;;;;;;;4.50;4.50;;;;;;;;5002338;28;46268;-85
2021/08/19 11:47:20;;;;;;;;;3.75;3.75;;;;;;;;5002656;28;45622;-85
2021/08/19 11:49:45;;;;;;;;;2.75;2.00;;;;;;;;5005196;28;45465;-85
2021/08/19 11:52:12;;;;;;;;;5.00;3.00;;;;;;;;5000359;28;45725;-84
2021/08/19 11:54:46;;;;;;;;;2.00;2.00;;;;;;;;5005508;28;45865;-86
2021/08/19 11:57:24;;;;;;;;;2.25;2.25;;;;;;;;5005419;28;45714;-87
2021/08/19 11:59:59;;;;;;;;;3.25;3.25;;;;;;;;4997138;28;45585;-85
2021/08/19 12:02:25;;;;;;;;;3.00;2.25;;;;;;;;5000388;28;45637;-85
2021/08/19 12:05:10;;;;;;;;;4.75;2.75;;;;;;;;5005512;28;46149;-84
2021/08/19 12:13:50;;;;;;;;;4.50;4.25;;;;;;;;5072050;22;45575;-85
2021/08/19 12:16:23;;;;;;;;;4.00;3.00;;;;;;;;5050112;28;46029;-85
2021/08/19 12:19:04;;;;;;;;;2.75;2.75;;;;;;;;5060903;27;45603;-84
2021/08/19 12:21:29;;;;;;;;;4.25;3.50;;;;;;;;5051446;28;45602;-85
2021/08/19 12:24:06;;;;;;;;;4.25;3.00;;;;;;;;5049881;27;45542;-84
2021/08/19 12:26:31;;;;;;;;;4.00;2.75;;;;;;;;5052022;27;45520;-86
2021/08/19 12:28:57;;;;;;;;;4.75;3.00;;;;;;;;5052886;27;45834;-85
2021/08/19 12:31:22;;;;;;;;;4.75;3.00;;;;;;;;5047218;27;45566;-85
2021/08/19 12:34:00;;;;;;;;;5.75;3.00;;;;;;;;5046237;27;45265;-87
2021/08/19 12:36:29;;;;;;;;;5.00;4.00;;;;;;;;5065654;27;47294;-84
2021/08/19 12:38:54;;;;;;;;;5.00;4.00;;;;;;;;5047422;27;45544;-85
2021/08/19 12:41:21;;;;;;;;;5.50;4.00;;;;;;;;5058624;27;45529;-85
2021/08/19 12:43:47;;;;;;;;;4.00;3.00;;;;;;;;5063880;27;45738;-84
2021/08/19 12:46:16;;;;;;;;;3.00;3.00;;;;;;;;5047061;28;46353;-85
2021/08/19 12:48:42;;;;;;;;;5.00;2.25;;;;;;;;5060348;27;46033;-86
2021/08/19 12:51:21;;;;;;;;;4.75;2.75;;;;;;;;5048522;28;45562;-84
2021/08/19 12:54:18;;;;;;;;;3.00;3.00;;;;;;;;5046611;28;46286;-86
2021/08/19 12:56:57;;;;;;;;;4.50;3.00;;;;;;;;4995007;28;48317;-84
2021/08/19 12:59:22;;;;;;;;;5.00;3.50;;;;;;;;5000937;28;45664;-84
2021/08/19 13:01:47;;;;;;;;;2.50;2.50;;;;;;;;5008671;28;45579;-84
2021/08/19 13:04:12;;;;;;;;;3.00;3.00;;;;;;;;5004330;28;48033;-84
2021/08/19 13:06:38;;;;;;;;;3.00;3.00;;;;;;;;5006207;28;47388;-85
2021/08/19 13:09:03;;;;;;;;;4.00;3.00;;;;;;;;5005117;28;47160;-85
2021/08/19 13:11:28;;;;;;;;;3.25;3.25;;;;;;;;5003410;28;48057;-84
2021/08/19 13:13:53;;;;;;;;;3.25;3.00;;;;;;;;5008258;28;45670;-86
2021/08/19 13:16:19;;;;;;;;;2.50;2.00;;;;;;;;5004721;28;47844;-86
2021/08/19 13:18:44;;;;;;;;;3.00;2.25;;;;;;;;5005608;28;46032;-85
2021/08/19 13:21:09;;;;;;;;;4.25;2.00;;;;;;;;5006039;28;47755;-84
2021/08/19 13:23:35;;;;;;;;;4.25;3.00;;;;;;;;5002561;28;45781;-85
2021/08/19 13:26:00;;;;;;;;;3.75;3.00;;;;;;;;5007295;28;45508;-83
2021/08/19 13:28:25;;;;;;;;;3.00;2.75;;;;;;;;5012228;28;45443;-84
2021/08/19 13:30:50;;;;;;;;;2.00;2.00;;;;;;;;4996948;28;45529;-85
2021/08/19 13:33:16;;;;;;;;;2.75;2.75;;;;;;;;5047313;28;52080;-84
2021/08/19 13:35:41;;;;;;;;;4.00;4.00;;;;;;;;5049048;27;47774;-84
2021/08/19 13:38:07;;;;;;;;;2.25;2.25;;;;;;;;5058566;28;45573;-85
2021/08/19 13:40:32;;;;;;;;;3.75;2.50;;;;;;;;5063544;27;45686;-85
2021/08/19 13:42:58;;;;;;;;;2.50;2.50;;;;;;;;5051943;27;45562;-83
2021/08/19 13:45:23;;;;;;;;;3.00;2.00;;;;;;;;5059891;27;46559;-86
2021/08/19 13:47:49;;;;;;;;;3.00;2.25;;;;;;;;5057498;27;46027;-87
2021/08/19 13:50:14;;;;;;;;;3.50;3.50;;;;;;;;5048953;27;45554;-85
2021/08/19 13:52:39;;;;;;;;;4.00;3.50;;;;;;;;5058173;27;45478;-85
2021/08/19 13:55:05;;;;;;;;;3.50;2.75;;;;;;;;5061527;27;47333;-85
2021/08/19 13:57:30;;;;;;;;;4.00;3.50;;;;;;;;5052191;28;45567;-85
2021/08/19 13:59:56;;;;;;;;;4.50;3.50;;;;;;;;5056506;27;45511;-84
2021/08/19 14:02:21;;;;;;;;;4.25;3.75;;;;;;;;5061779;27;45629;-85
2021/08/19 14:04:46;;;;;;;;;3.00;3.00;;;;;;;;5065154;27;48287;-82
2021/08/19 14:07:11;;;;;;;;;2.00;2.00;;;;;;;;5061780;27;45578;-82
2021/08/19 14:09:37;;;;;;;;;3.00;3.00;;;;;;;;5057648;28;45651;-82
2021/08/19 14:12:02;;;;;;;;;2.00;2.00;;;;;;;;5057568;27;45526;-82
2021/08/19 14:14:27;;;;;;;;;3.75;3.75;;;;;;;;5056052;27;46303;-82
2021/08/19 14:16:53;;;;;;;;;4.00;3.00;;;;;;;;5056650;28;45503;-82
2021/08/19 14:19:18;;;;;;;;;5.50;2.50;;;;;;;;5063650;27;45796;-82
2021/08/19 14:21:44;;;;;;;;;3.00;2.75;;;;;;;;5054536;27;45576;-82
2021/08/19 14:24:09;;;;;;;;;4.25;4.25;;;;;;;;5054708;27;46529;-82
2021/08/19 14:26:34;;;;;;;;;4.75;4.25;;;;;;;;5050362;27;51409;-82
2021/08/19 14:29:02;;;;;;;;;3.00;3.00;;;;;;;;5054195;27;46591;-82
2021/08/19 14:31:27;;;;;;;;;3.00;3.00;;;;;;;;5049814;27;49412;-82
2021/08/19 14:33:54;;;;;;;;;3.00;2.00;;;;;;;;5056218;27;46375;-82
2021/08/19 14:36:19;;;;;;;;;2.75;2.75;;;;;;;;5052548;28;45634;-81
2021/08/19 14:38:44;;;;;;;;;4.25;4.00;;;;;;;;5051800;27;45626;-81
2021/08/19 14:41:10;;;;;;;;;4.50;2.75;;;;;;;;5063821;27;45564;-82
2021/08/19 14:43:36;;;;;;;;;3.25;3.25;;;;;;;;5060667;27;47621;-82
2021/08/19 14:46:03;;;;;;;;;2.50;2.50;;;;;;;;5051917;27;45642;-82
2021/08/19 14:48:28;;;;;;;;;3.75;3.75;;;;;;;;5065401;27;45709;-82
2021/08/19 14:50:53;;;;;;;;;3.00;3.00;;;;;;;;5059812;27;45504;-82
2021/08/19 14:53:19;;;;;;;;;3.50;3.25;;;;;;;;5054461;28;45818;-81